Time;durP1;ratioP1;P1;durP2;ratioP2;P2;SDS_P1;SDS_P2;PMS_P1;PMS_P2;Temp;Humidity;BMP_temperature;BMP_pressure;BME280_temperature;BME280_humidity;BME280_pressure;Samples;Min_cycle;Max_cycle;Signal;HPM_P1;HPM_P2
2024/01/30 00:01:58;;;;;;;91.70;48.30;;;;;;;0.34;82.78;102686.17;108949;1254;58876;-66
2024/01/30 00:04:24;;;;;;;93.00;50.90;;;;;;;0.33;82.74;102685.23;108947;1254;59457;-65
2024/01/30 00:06:52;;;;;;;100.20;52.80;;;;;;;0.33;82.91;102685.94;108891;1254;139382;-65
2024/01/30 00:09:19;;;;;;;98.10;52.20;;;;;;;0.35;82.81;102683.86;109216;1254;64194;-66
2024/01/30 00:11:46;;;;;;;81.70;46.30;;;;;;;0.36;82.93;102686.42;108846;1256;138837;-65
2024/01/30 00:14:13;;;;;;;84.90;43.70;;;;;;;0.37;83.00;102682.73;109036;1254;65128;-66
2024/01/30 00:16:40;;;;;;;81.30;42.50;;;;;;;0.38;83.00;102686.62;108908;1254;60930;-66
2024/01/30 00:19:08;;;;;;;78.80;42.00;;;;;;;0.39;82.99;102688.25;108902;1254;139248;-66
2024/01/30 00:21:34;;;;;;;78.10;39.90;;;;;;;0.41;83.00;102683.76;108918;1254;65445;-66
2024/01/30 00:24:02;;;;;;;78.70;40.20;;;;;;;0.42;82.95;102682.98;109056;1254;139294;-65
2024/01/30 00:26:28;;;;;;;79.70;39.20;;;;;;;0.44;83.04;102689.42;108917;1255;59308;-65
2024/01/30 00:28:55;;;;;;;73.60;40.30;;;;;;;0.47;83.13;102690.84;108875;1254;139205;-65
2024/01/30 00:31:22;;;;;;;82.10;41.80;;;;;;;0.47;83.25;102690.06;109189;1255;74660;-66
2024/01/30 00:33:48;;;;;;;82.60;43.40;;;;;;;0.49;83.05;102688.98;109051;1254;65674;-59
2024/01/30 00:36:15;;;;;;;77.30;41.60;;;;;;;0.49;83.17;102687.81;104949;1259;138982;-59
2024/01/30 00:38:42;;;;;;;77.60;41.10;;;;;;;0.50;83.22;102687.39;105185;1255;61343;-59
2024/01/30 00:41:09;;;;;;;76.10;40.70;;;;;;;0.50;83.07;102687.88;105057;1259;138706;-59
2024/01/30 00:43:36;;;;;;;72.90;40.30;;;;;;;0.48;83.06;102688.95;105846;1258;75642;-59
2024/01/30 00:46:03;;;;;;;67.60;39.20;;;;;;;0.47;82.88;102689.13;109196;1254;67302;-58
2024/01/30 00:48:30;;;;;;;79.50;39.50;;;;;;;0.44;82.94;102692.46;108775;1256;138717;-59
2024/01/30 00:50:57;;;;;;;73.50;40.10;;;;;;;0.41;83.00;102693.27;104887;1257;61284;-59
2024/01/30 00:53:23;;;;;;;72.40;39.40;;;;;;;0.38;82.92;102688.48;104727;1257;139712;-65
2024/01/30 00:55:50;;;;;;;74.30;40.50;;;;;;;0.36;82.86;102691.38;105086;1259;74165;-66
2024/01/30 00:58:19;;;;;;;74.40;41.40;;;;;;;0.33;83.07;102688.84;104970;1254;67233;-65
2024/01/30 01:00:46;;;;;;;68.40;40.00;;;;;;;0.30;83.00;102687.31;108841;1254;138709;-65
2024/01/30 01:03:13;;;;;;;68.30;39.70;;;;;;;0.28;83.04;102689.17;108964;1257;59485;-65
2024/01/30 01:05:40;;;;;;;73.90;39.70;;;;;;;0.26;82.89;102689.06;109093;1254;138805;-65
2024/01/30 01:08:08;;;;;;;78.00;41.10;;;;;;;0.26;83.01;102687.81;108983;1254;75249;-65
2024/01/30 01:10:35;;;;;;;70.40;38.30;;;;;;;0.26;83.08;102684.55;109005;1254;67081;-66
2024/01/30 01:13:02;;;;;;;69.00;37.30;;;;;;;0.26;83.06;102689.36;109104;1254;138638;-66
2024/01/30 01:15:29;;;;;;;69.20;38.90;;;;;;;0.27;83.21;102679.29;108305;1254;61295;-65
2024/01/30 01:17:55;;;;;;;69.00;38.70;;;;;;;0.27;83.15;102680.11;105004;1255;138811;-65
2024/01/30 01:20:22;;;;;;;73.50;38.20;;;;;;;0.27;83.14;102680.80;105031;1255;73495;-65
2024/01/30 01:22:49;;;;;;;67.60;37.00;;;;;;;0.26;83.12;102683.30;104927;1256;66847;-65
2024/01/30 01:25:16;;;;;;;72.60;38.40;;;;;;;0.25;83.13;102687.23;104821;1254;138644;-65
2024/01/30 01:27:44;;;;;;;66.70;38.70;;;;;;;0.24;83.07;102687.60;104957;1260;61359;-65
2024/01/30 01:30:14;;;;;;;70.40;38.50;;;;;;;0.24;83.18;102689.50;105010;1254;137979;-66
2024/01/30 01:32:49;;;;;;;74.10;39.50;;;;;;;0.24;83.19;102689.00;105113;1254;75094;-67
2024/01/30 01:35:15;;;;;;;76.20;41.30;;;;;;;0.22;83.05;102688.98;104961;1259;138539;-66
2024/01/30 01:37:42;;;;;;;72.10;40.50;;;;;;;0.21;83.32;102689.41;105083;1258;71666;-60
2024/01/30 01:40:09;;;;;;;69.40;40.50;;;;;;;0.20;83.33;102686.88;104891;1260;61375;-65
2024/01/30 01:42:36;;;;;;;72.50;40.00;;;;;;;0.18;83.68;102684.10;105715;1259;138960;-66
2024/01/30 01:45:03;;;;;;;68.20;38.40;;;;;;;0.17;83.48;102682.67;104925;1259;75845;-65
2024/01/30 01:47:30;;;;;;;70.40;39.70;;;;;;;0.15;83.46;102684.32;104977;1258;139465;-58
2024/01/30 01:49:57;;;;;;;71.20;40.50;;;;;;;0.14;83.54;102684.95;104840;1257;73936;-65
2024/01/30 01:52:24;;;;;;;69.20;39.50;;;;;;;0.13;83.50;102686.95;104775;1260;61369;-66
2024/01/30 01:54:51;;;;;;;69.30;38.60;;;;;;;0.12;83.57;102682.90;104630;1254;138690;-59
2024/01/30 01:57:18;;;;;;;72.90;39.40;;;;;;;0.13;83.73;102684.14;104964;1254;75602;-59
2024/01/30 01:59:44;;;;;;;68.50;38.30;;;;;;;0.14;83.74;102678.20;104988;1254;139489;-65
2024/01/30 02:02:11;;;;;;;69.60;39.50;;;;;;;0.14;83.74;102675.27;104749;1259;73673;-66
2024/01/30 02:04:38;;;;;;;73.10;38.30;;;;;;;0.14;83.74;102675.67;104708;1254;61286;-66
2024/01/30 02:07:05;;;;;;;75.20;40.50;;;;;;;0.15;83.66;102674.19;104809;1254;138570;-59
2024/01/30 02:09:32;;;;;;;70.50;40.20;;;;;;;0.15;83.71;102676.26;104868;1254;75889;-60
2024/01/30 02:11:58;;;;;;;64.20;37.90;;;;;;;0.15;83.77;102671.71;105030;1256;138698;-65
2024/01/30 02:14:25;;;;;;;74.70;40.40;;;;;;;0.15;83.94;102672.31;104998;1260;73690;-66
2024/01/30 02:16:52;;;;;;;69.80;37.20;;;;;;;0.16;84.12;102663.39;105070;1254;61241;-66
2024/01/30 02:19:19;;;;;;;80.90;40.60;;;;;;;0.18;83.96;102664.42;104985;1260;61698;-66
2024/01/30 02:21:46;;;;;;;71.60;40.00;;;;;;;0.20;83.89;102661.48;109141;1256;74985;-66
2024/01/30 02:24:13;;;;;;;72.90;40.10;;;;;;;0.22;83.92;102654.72;108907;1254;138710;-60
2024/01/30 02:26:40;;;;;;;71.80;39.40;;;;;;;0.23;84.04;102646.81;109197;1254;73170;-60
2024/01/30 02:29:06;;;;;;;66.50;39.80;;;;;;;0.26;83.99;102636.84;108856;1254;138956;-65
2024/01/30 02:31:33;;;;;;;75.10;37.70;;;;;;;0.28;83.99;102634.33;109135;1256;60746;-59
2024/01/30 02:34:00;;;;;;;69.30;38.90;;;;;;;0.31;84.04;102632.65;108992;1254;74671;-59
2024/01/30 02:36:27;;;;;;;74.20;38.80;;;;;;;0.33;84.00;102629.50;106687;1254;139924;-59
2024/01/30 02:38:53;;;;;;;69.80;37.80;;;;;;;0.35;84.01;102632.27;105078;1257;73473;-59
2024/01/30 02:41:21;;;;;;;68.80;38.10;;;;;;;0.37;83.92;102634.70;104773;1257;139294;-59
2024/01/30 02:43:48;;;;;;;67.60;37.40;;;;;;;0.39;83.93;102631.43;105007;1258;61157;-59
2024/01/30 02:46:15;;;;;;;67.60;37.10;;;;;;;0.42;83.91;102629.89;104891;1254;73649;-59
2024/01/30 02:48:41;;;;;;;65.60;35.70;;;;;;;0.44;84.06;102625.95;104991;1256;138721;-59
2024/01/30 02:51:08;;;;;;;68.60;36.90;;;;;;;0.44;83.95;102629.25;104700;1261;72760;-66
2024/01/30 02:53:35;;;;;;;70.80;38.30;;;;;;;0.44;84.10;102631.32;105020;1259;138900;-59
2024/01/30 02:56:03;;;;;;;66.40;37.20;;;;;;;0.44;83.84;102629.95;105076;1254;61336;-59
2024/01/30 02:58:30;;;;;;;61.90;35.60;;;;;;;0.43;83.88;102628.48;109180;1254;74897;-59
2024/01/30 03:00:56;;;;;;;67.00;37.20;;;;;;;0.43;83.96;102632.97;108861;1254;139196;-65
2024/01/30 03:03:23;;;;;;;62.70;38.60;;;;;;;0.43;83.99;102632.48;107588;1256;70401;-66
2024/01/30 03:05:50;;;;;;;69.90;37.80;;;;;;;0.45;83.90;102636.75;104989;1259;138989;-60
2024/01/30 03:08:17;;;;;;;61.90;36.90;;;;;;;0.44;83.91;102632.17;105106;1257;61222;-60
2024/01/30 03:10:44;;;;;;;65.10;36.20;;;;;;;0.44;83.73;102634.46;105091;1257;75616;-60
2024/01/30 03:13:10;;;;;;;64.70;35.60;;;;;;;0.42;83.68;102633.70;104713;1255;138497;-60
2024/01/30 03:15:37;;;;;;;70.00;37.70;;;;;;;0.39;83.72;102634.29;105026;1259;72113;-60
2024/01/30 03:18:05;;;;;;;67.50;37.60;;;;;;;0.35;83.57;102635.04;104649;1262;138354;-67
2024/01/30 03:20:31;;;;;;;62.70;35.80;;;;;;;0.32;83.65;102634.55;105841;1254;60968;-60
2024/01/30 03:23:00;;;;;;;69.60;37.70;;;;;;;0.31;83.73;102635.09;104873;1254;138926;-60
2024/01/30 03:25:26;;;;;;;66.30;38.70;;;;;;;0.28;83.74;102639.35;109171;1254;64679;-60
2024/01/30 03:27:53;;;;;;;69.50;37.60;;;;;;;0.29;83.70;102640.23;108984;1254;71852;-61
2024/01/30 03:30:20;;;;;;;70.20;38.30;;;;;;;0.29;83.97;102641.83;109074;1254;138933;-60
2024/01/30 03:32:46;;;;;;;70.30;37.20;;;;;;;0.28;83.84;102644.70;108982;1256;60331;-60
2024/01/30 03:35:13;;;;;;;65.20;37.90;;;;;;;0.28;83.75;102643.41;109049;1254;138762;-64
2024/01/30 03:37:40;;;;;;;73.60;37.40;;;;;;;0.28;83.83;102635.16;108979;1254;64884;-66
2024/01/30 03:40:07;;;;;;;77.90;39.40;;;;;;;0.28;83.85;102634.16;109132;1255;72000;-60
2024/01/30 03:42:34;;;;;;;65.40;35.30;;;;;;;0.28;83.80;102630.49;107523;1254;139134;-66
2024/01/30 03:45:01;;;;;;;67.50;37.40;;;;;;;0.27;83.55;102631.59;105173;1256;61243;-66
2024/01/30 03:47:28;;;;;;;67.90;38.10;;;;;;;0.25;83.64;102637.33;109095;1254;138705;-66
2024/01/30 03:49:55;;;;;;;65.20;37.30;;;;;;;0.24;83.64;102633.55;109204;1254;66227;-65
2024/01/30 03:52:21;;;;;;;68.10;36.50;;;;;;;0.19;83.50;102627.38;109035;1254;71410;-64
2024/01/30 03:54:48;;;;;;;70.50;39.40;;;;;;;0.21;83.46;102635.14;108858;1254;139672;-59
2024/01/30 03:57:15;;;;;;;67.50;38.10;;;;;;;0.19;83.50;102632.58;109140;1254;60315;-58
2024/01/30 03:59:45;;;;;;;66.00;38.10;;;;;;;0.17;83.65;102637.95;109111;1254;139135;-59
2024/01/30 04:02:12;;;;;;;74.60;39.50;;;;;;;0.15;83.46;102640.30;109000;1254;66141;-58
2024/01/30 04:04:38;;;;;;;69.20;37.40;;;;;;;0.15;83.56;102646.58;109234;1254;73753;-58
2024/01/30 04:07:05;;;;;;;68.60;38.40;;;;;;;0.15;83.47;102648.84;106195;1256;138831;-60
2024/01/30 04:09:32;;;;;;;69.30;38.30;;;;;;;0.13;83.32;102645.70;104906;1254;61267;-59
2024/01/30 04:11:59;;;;;;;71.50;39.40;;;;;;;0.08;83.32;102640.70;104931;1254;138515;-60
2024/01/30 04:14:26;;;;;;;68.20;36.80;;;;;;;0.06;83.43;102639.90;104784;1260;67007;-60
2024/01/30 04:16:53;;;;;;;69.30;37.00;;;;;;;0.04;83.45;102637.85;105009;1256;138889;-58
2024/01/30 04:19:19;;;;;;;71.70;39.00;;;;;;;0.00;83.35;102636.77;105053;1258;61328;-60
2024/01/30 04:21:46;;;;;;;78.20;41.00;;;;;;;-0.03;83.44;102639.11;104836;1260;61195;-60
2024/01/30 04:24:13;;;;;;;71.50;39.90;;;;;;;-0.04;83.67;102635.23;104677;1256;139313;-59
2024/01/30 04:26:40;;;;;;;68.80;39.80;;;;;;;-0.06;83.73;102634.54;104779;1262;67584;-59
2024/01/30 04:29:06;;;;;;;66.40;37.30;;;;;;;-0.08;83.77;102635.35;104917;1256;138211;-60
2024/01/30 04:31:33;;;;;;;75.90;38.20;;;;;;;-0.09;83.73;102634.17;105151;1256;61353;-66
2024/01/30 04:34:00;;;;;;;70.40;37.60;;;;;;;-0.10;83.86;102632.82;104832;1257;61274;-67
2024/01/30 04:36:27;;;;;;;72.10;38.50;;;;;;;-0.12;83.80;102633.34;104927;1254;138625;-60
2024/01/30 04:38:53;;;;;;;69.70;37.60;;;;;;;-0.16;84.07;102636.42;105054;1254;65649;-59
2024/01/30 04:41:20;;;;;;;66.50;37.50;;;;;;;-0.17;83.93;102637.70;104714;1256;138780;-60
2024/01/30 04:43:47;;;;;;;70.30;37.30;;;;;;;-0.21;83.90;102643.73;105083;1254;61106;-66
2024/01/30 04:46:14;;;;;;;64.40;35.90;;;;;;;-0.25;84.06;102644.73;104880;1256;61284;-66
2024/01/30 04:48:41;;;;;;;73.90;38.80;;;;;;;-0.28;83.84;102641.96;104796;1257;139496;-59
2024/01/30 04:51:07;;;;;;;62.40;35.60;;;;;;;-0.32;84.01;102637.13;104702;1262;67243;-60
2024/01/30 04:53:34;;;;;;;66.40;36.60;;;;;;;-0.33;84.06;102634.58;104796;1258;139092;-60
2024/01/30 04:56:01;;;;;;;68.90;37.60;;;;;;;-0.33;84.31;102638.75;104880;1259;61324;-59
2024/01/30 04:58:28;;;;;;;65.20;36.30;;;;;;;-0.32;84.29;102642.29;104974;1254;60729;-59
2024/01/30 05:00:55;;;;;;;64.90;36.80;;;;;;;-0.33;84.32;102639.45;104941;1254;138930;-60
2024/01/30 05:03:23;;;;;;;70.50;38.20;;;;;;;-0.34;84.45;102638.84;104869;1257;64818;-66
2024/01/30 05:05:50;;;;;;;63.10;37.00;;;;;;;-0.33;84.54;102640.05;104985;1255;139391;-66
2024/01/30 05:08:17;;;;;;;61.80;37.40;;;;;;;-0.34;84.32;102631.77;104997;1260;61358;-66
2024/01/30 05:10:44;;;;;;;67.80;36.70;;;;;;;-0.33;84.63;102632.88;105032;1256;61139;-60
2024/01/30 05:13:13;;;;;;;66.40;36.40;;;;;;;-0.33;84.50;102631.16;104658;1257;138891;-66
2024/01/30 05:15:40;;;;;;;68.50;36.10;;;;;;;-0.30;84.80;102627.45;104698;1254;67460;-67
2024/01/30 05:18:07;;;;;;;66.40;37.20;;;;;;;-0.28;84.55;102626.14;105012;1257;138983;-61
2024/01/30 05:20:33;;;;;;;75.10;37.60;;;;;;;-0.26;84.54;102623.55;104977;1257;61239;-66
2024/01/30 05:23:00;;;;;;;66.30;36.60;;;;;;;-0.24;84.64;102620.17;104915;1257;139081;-60
2024/01/30 05:25:27;;;;;;;67.80;37.40;;;;;;;-0.20;84.77;102621.71;105116;1255;74051;-61
2024/01/30 05:27:55;;;;;;;68.40;37.00;;;;;;;-0.17;84.82;102619.55;104887;1261;66157;-66
2024/01/30 05:30:22;;;;;;;68.00;37.30;;;;;;;-0.15;84.65;102623.02;108834;1254;138948;-66
2024/01/30 05:32:49;;;;;;;67.80;37.20;;;;;;;-0.13;84.58;102621.83;109217;1254;59193;-60
2024/01/30 05:35:16;;;;;;;59.90;35.70;;;;;;;-0.10;84.58;102629.27;108851;1254;139206;-59
2024/01/30 05:37:43;;;;;;;69.50;35.80;;;;;;;-0.09;84.41;102629.05;104938;1254;74416;-59
2024/01/30 05:40:10;;;;;;;66.10;36.60;;;;;;;-0.06;84.55;102636.02;104790;1257;66804;-60
2024/01/30 05:42:37;;;;;;;71.30;36.00;;;;;;;-0.05;84.53;102640.79;109038;1254;138841;-60
2024/01/30 05:45:05;;;;;;;62.80;36.00;;;;;;;-0.04;84.48;102640.73;109221;1254;59721;-60
2024/01/30 05:47:32;;;;;;;60.80;36.00;;;;;;;-0.01;84.49;102639.94;109098;1254;138799;-66
2024/01/30 05:49:58;;;;;;;64.70;37.50;;;;;;;0.00;84.61;102633.36;109010;1256;75081;-60
2024/01/30 05:52:25;;;;;;;60.80;34.90;;;;;;;0.05;84.49;102639.65;109171;1254;67878;-66
2024/01/30 05:54:52;;;;;;;72.50;38.30;;;;;;;0.07;84.40;102640.75;108821;1255;138524;-60
2024/01/30 05:57:18;;;;;;;66.40;37.20;;;;;;;0.10;84.48;102638.24;108885;1256;59883;-59
2024/01/30 05:59:47;;;;;;;69.60;37.20;;;;;;;0.14;84.34;102638.32;109038;1255;139201;-60
2024/01/30 06:02:14;;;;;;;58.20;34.50;;;;;;;0.15;84.22;102635.52;109235;1254;74728;-60
2024/01/30 06:04:41;;;;;;;64.10;36.30;;;;;;;0.15;84.07;102634.67;108362;1257;64712;-59
2024/01/30 06:07:07;;;;;;;65.00;36.20;;;;;;;0.17;84.11;102635.83;104824;1257;138562;-59
2024/01/30 06:09:34;;;;;;;69.50;36.10;;;;;;;0.18;84.05;102637.21;104988;1259;61350;-59
2024/01/30 06:12:01;;;;;;;69.50;37.30;;;;;;;0.18;84.11;102638.04;104868;1256;139016;-65
2024/01/30 06:14:28;;;;;;;63.10;36.40;;;;;;;0.19;84.02;102636.42;105010;1261;75264;-59
2024/01/30 06:16:54;;;;;;;68.30;38.30;;;;;;;0.18;84.04;102634.42;104922;1256;138884;-60
2024/01/30 06:19:21;;;;;;;84.50;45.00;;;;;;;0.18;83.99;102636.42;104984;1259;73305;-59
2024/01/30 06:21:48;;;;;;;89.10;48.90;;;;;;;0.16;83.91;102633.17;104804;1256;61304;-65
2024/01/30 06:24:15;;;;;;;86.50;47.90;;;;;;;0.14;84.02;102632.97;105003;1259;137841;-65
2024/01/30 06:26:41;;;;;;;81.70;46.50;;;;;;;0.09;83.89;102634.92;105106;1255;75398;-59
2024/01/30 06:29:09;;;;;;;82.30;45.20;;;;;;;0.06;84.04;102639.26;108779;1262;137934;-60
2024/01/30 06:31:41;;;;;;;79.30;46.30;;;;;;;0.02;83.86;102642.34;109168;1254;72912;-60
2024/01/30 06:34:09;;;;;;;81.70;47.20;;;;;;;-0.01;83.91;102644.52;108977;1254;59078;-59
2024/01/30 06:36:36;;;;;;;88.50;49.40;;;;;;;-0.04;83.97;102644.05;108809;1257;138789;-60
2024/01/30 06:39:02;;;;;;;92.40;53.80;;;;;;;-0.05;83.87;102642.02;106116;1257;75021;-60
2024/01/30 06:41:30;;;;;;;94.10;53.20;;;;;;;-0.05;84.01;102636.30;105007;1254;139994;-60
2024/01/30 06:43:56;;;;;;;104.40;61.00;;;;;;;-0.06;83.76;102638.27;109099;1254;72450;-60
2024/01/30 06:46:23;;;;;;;104.00;56.80;;;;;;;-0.08;83.84;102636.33;105109;1257;61119;-58
2024/01/30 06:48:50;;;;;;;91.90;55.10;;;;;;;-0.11;83.78;102630.67;104820;1257;138944;-59
2024/01/30 06:51:17;;;;;;;97.20;58.50;;;;;;;-0.10;83.88;102635.98;104900;1261;73954;-65
2024/01/30 06:53:43;;;;;;;93.70;53.40;;;;;;;-0.08;83.68;102639.60;104709;1262;138923;-66
2024/01/30 06:56:10;;;;;;;96.00;55.30;;;;;;;-0.07;84.09;102638.73;105094;1257;73894;-59
2024/01/30 06:58:37;;;;;;;95.00;52.10;;;;;;;-0.03;83.90;102639.27;104855;1262;61346;-60
2024/01/30 07:01:04;;;;;;;95.70;52.90;;;;;;;-0.01;84.02;102636.05;104746;1261;138972;-60
2024/01/30 07:03:31;;;;;;;99.80;55.30;;;;;;;0.03;84.04;102634.63;104983;1255;73707;-61
2024/01/30 07:05:57;;;;;;;97.50;52.80;;;;;;;0.07;84.07;102634.31;104911;1259;139668;-60
2024/01/30 07:08:24;;;;;;;102.60;51.60;;;;;;;0.10;83.95;102635.02;104926;1260;73305;-60
2024/01/30 07:10:54;;;;;;;88.50;48.10;;;;;;;0.13;83.94;102630.66;105063;1257;61476;-60
2024/01/30 07:13:21;;;;;;;82.10;44.90;;;;;;;0.15;83.97;102630.52;104833;1261;61244;-60
2024/01/30 07:15:48;;;;;;;78.10;43.90;;;;;;;0.18;83.84;102628.52;105025;1257;74487;-59
2024/01/30 07:18:15;;;;;;;74.50;42.30;;;;;;;0.23;84.04;102630.34;104722;1256;138244;-59
2024/01/30 07:20:51;;;;;;;65.90;40.50;;;;;;;0.27;84.15;102629.73;104649;1263;73266;-59
2024/01/30 07:23:17;;;;;;;78.50;42.20;;;;;;;0.32;84.22;102627.95;105845;1256;138465;-60
2024/01/30 07:25:45;;;;;;;80.00;41.80;;;;;;;0.37;84.05;102627.05;104733;1262;61212;-60
2024/01/30 07:28:16;;;;;;;75.10;42.00;;;;;;;0.46;84.23;102626.52;104839;1257;73990;-60
2024/01/30 07:30:43;;;;;;;81.20;42.30;;;;;;;0.55;84.28;102622.02;104644;1262;138877;-60
2024/01/30 07:33:10;;;;;;;74.40;42.90;;;;;;;0.60;84.17;102619.41;104664;1257;72354;-60
2024/01/30 07:35:36;;;;;;;70.30;41.50;;;;;;;0.67;84.26;102613.85;104779;1254;139247;-66
2024/01/30 07:38:03;;;;;;;76.10;47.20;;;;;;;0.77;84.27;102613.71;105028;1259;61295;-66
2024/01/30 07:40:30;;;;;;;83.10;50.40;;;;;;;0.86;84.15;102615.41;104726;1262;75969;-59
2024/01/30 07:42:57;;;;;;;109.40;62.30;;;;;;;0.94;84.26;102613.65;104912;1259;139807;-60
2024/01/30 07:45:25;;;;;;;89.90;49.60;;;;;;;1.04;84.06;102614.33;104763;1256;71277;-60
2024/01/30 07:47:52;;;;;;;72.70;42.70;;;;;;;1.14;84.31;102613.18;104732;1255;138843;-60
2024/01/30 07:50:19;;;;;;;76.30;45.50;;;;;;;1.25;84.19;102617.91;105077;1257;61230;-61
2024/01/30 07:52:45;;;;;;;75.90;44.20;;;;;;;1.34;84.28;102619.36;104956;1257;73902;-60
2024/01/30 07:55:12;;;;;;;68.90;40.10;;;;;;;1.44;84.00;102617.73;104910;1257;139061;-61
2024/01/30 07:57:39;;;;;;;67.50;37.80;;;;;;;1.53;84.02;102616.10;104892;1259;73849;-60
2024/01/30 08:00:07;;;;;;;64.10;36.50;;;;;;;1.62;83.85;102613.08;104877;1257;138544;-59
2024/01/30 08:02:34;;;;;;;56.70;34.90;;;;;;;1.69;83.73;102607.58;109234;1254;60341;-60
2024/01/30 08:05:01;;;;;;;62.50;38.60;;;;;;;1.77;83.70;102603.20;108903;1254;138779;-60
2024/01/30 08:07:29;;;;;;;64.60;38.10;;;;;;;1.80;83.42;102604.05;109072;1257;65963;-60
2024/01/30 08:09:56;;;;;;;65.40;39.90;;;;;;;1.87;83.45;102599.45;109074;1256;73608;-66
2024/01/30 08:12:23;;;;;;;64.70;38.20;;;;;;;1.94;83.34;102597.63;109009;1254;138590;-65
2024/01/30 08:14:50;;;;;;;57.10;35.50;;;;;;;2.00;83.28;102591.59;109071;1254;59083;-66
2024/01/30 08:17:16;;;;;;;55.30;32.80;;;;;;;2.08;83.10;102592.50;108960;1254;139029;-61
2024/01/30 08:19:43;;;;;;;57.70;32.80;;;;;;;2.18;83.16;102587.48;109005;1257;67217;-60
2024/01/30 08:22:12;;;;;;;74.00;42.80;;;;;;;2.30;82.99;102587.51;108903;1257;70652;-60
2024/01/30 08:24:40;;;;;;;53.80;33.60;;;;;;;2.41;82.97;102583.92;108838;1255;139125;-60
2024/01/30 08:27:09;;;;;;;58.20;34.80;;;;;;;2.52;82.98;102584.70;109181;1258;60257;-59
2024/01/30 08:29:36;;;;;;;61.90;37.30;;;;;;;2.64;82.89;102586.92;108916;1256;139053;-60
2024/01/30 08:32:05;;;;;;;58.70;36.00;;;;;;;2.76;82.57;102591.52;109057;1256;66127;-66
2024/01/30 08:34:31;;;;;;;64.90;44.00;;;;;;;2.89;82.42;102591.76;109063;1255;72751;-65
2024/01/30 08:36:58;;;;;;;57.10;38.50;;;;;;;3.03;82.26;102590.59;108971;1256;138119;-66
2024/01/30 08:39:25;;;;;;;86.90;61.20;;;;;;;3.15;82.21;102591.30;108974;1256;60038;-66
2024/01/30 08:41:51;;;;;;;63.70;43.40;;;;;;;3.29;82.07;102591.63;109023;1256;138370;-66
2024/01/30 08:44:19;;;;;;;80.60;59.20;;;;;;;3.41;81.99;102590.71;109226;1254;67488;-60
2024/01/30 08:46:46;;;;;;;81.30;53.70;;;;;;;3.51;81.81;102596.88;109151;1257;74025;-60
2024/01/30 08:49:13;;;;;;;67.70;47.00;;;;;;;3.59;81.60;102600.73;108915;1254;137934;-60
2024/01/30 08:51:40;;;;;;;58.90;38.30;;;;;;;3.67;81.44;102602.77;109185;1257;61374;-60
2024/01/30 08:54:07;;;;;;;52.80;33.60;;;;;;;3.76;81.39;102604.02;105357;1258;139693;-59
2024/01/30 08:56:33;;;;;;;51.50;31.70;;;;;;;3.87;81.19;102599.67;105026;1256;66526;-66
2024/01/30 08:59:00;;;;;;;52.00;31.00;;;;;;;3.98;81.36;102601.66;105014;1258;139138;-65
2024/01/30 09:01:27;;;;;;;52.10;33.00;;;;;;;4.09;81.27;102600.29;105144;1257;61333;-66
2024/01/30 09:03:54;;;;;;;58.10;35.10;;;;;;;4.19;81.05;102600.42;105123;1258;61352;-60
2024/01/30 09:06:21;;;;;;;50.30;30.90;;;;;;;4.29;80.96;102599.80;104855;1256;138353;-66
2024/01/30 09:08:47;;;;;;;43.00;28.00;;;;;;;4.37;80.77;102598.52;104820;1257;65425;-66
2024/01/30 09:11:14;;;;;;;46.50;28.90;;;;;;;4.45;80.59;102599.64;104784;1261;138640;-66
2024/01/30 09:13:41;;;;;;;46.00;29.10;;;;;;;4.54;80.59;102603.14;108961;1256;59309;-65
2024/01/30 09:16:08;;;;;;;50.40;30.60;;;;;;;4.59;80.37;102601.95;109029;1256;60194;-65
2024/01/30 09:18:34;;;;;;;49.60;30.90;;;;;;;4.64;80.16;102603.08;108904;1257;139426;-65
2024/01/30 09:21:01;;;;;;;58.70;32.30;;;;;;;4.67;79.91;102601.42;108987;1256;65345;-65
2024/01/30 09:23:28;;;;;;;50.80;30.60;;;;;;;4.68;79.78;102596.48;108549;1256;266217;-65
2024/01/30 09:25:55;;;;;;;57.60;31.00;;;;;;;4.72;79.64;102596.58;109038;1256;60092;-65
2024/01/30 09:28:22;;;;;;;54.30;31.50;;;;;;;4.77;79.55;102594.56;109012;1256;61196;-65
2024/01/30 09:30:48;;;;;;;47.20;28.40;;;;;;;4.82;79.50;102593.38;109029;1254;138580;-67
2024/01/30 09:33:15;;;;;;;48.40;29.90;;;;;;;4.90;79.42;102592.38;109182;1257;67284;-67
2024/01/30 09:35:42;;;;;;;48.90;29.80;;;;;;;4.99;79.37;102590.66;109102;1255;138140;-60
2024/01/30 09:38:08;;;;;;;48.10;28.10;;;;;;;5.06;79.16;102590.66;109003;1257;59464;-66
2024/01/30 09:40:35;;;;;;;46.90;29.30;;;;;;;5.10;79.00;102593.77;109019;1258;61447;-67
2024/01/30 09:43:02;;;;;;;48.20;29.80;;;;;;;5.16;78.94;102588.77;108925;1256;138114;-67
2024/01/30 09:45:28;;;;;;;45.90;28.10;;;;;;;5.20;78.78;102590.02;109035;1256;66094;-62
2024/01/30 09:47:55;;;;;;;55.90;35.30;;;;;;;5.21;78.50;102590.96;108779;1257;138759;-60
2024/01/30 09:50:22;;;;;;;55.90;34.50;;;;;;;5.24;78.47;102592.23;109058;1257;59148;-60
2024/01/30 09:52:49;;;;;;;50.70;31.30;;;;;;;5.26;78.24;102592.77;105291;1258;61826;-67
2024/01/30 09:55:16;;;;;;;53.30;30.80;;;;;;;5.27;78.04;102594.39;108793;1256;138761;-65
2024/01/30 09:57:43;;;;;;;46.60;29.50;;;;;;;5.29;78.06;102586.81;109064;1256;66649;-59
2024/01/30 10:00:11;;;;;;;44.00;27.80;;;;;;;5.32;78.00;102585.00;108916;1256;138317;-66
2024/01/30 10:02:38;;;;;;;43.10;27.90;;;;;;;5.36;77.88;102583.02;109089;1255;59144;-60
2024/01/30 10:05:05;;;;;;;50.80;28.00;;;;;;;5.42;77.94;102579.48;108860;1256;139378;-60
2024/01/30 10:07:32;;;;;;;41.50;27.10;;;;;;;5.50;77.86;102571.73;109063;1256;73463;-60
2024/01/30 10:09:59;;;;;;;40.30;25.60;;;;;;;5.60;77.77;102568.27;109074;1257;65700;-60
2024/01/30 10:12:26;;;;;;;39.70;25.50;;;;;;;5.68;77.56;102568.17;109008;1259;138749;-60
2024/01/30 10:14:53;;;;;;;43.30;27.20;;;;;;;5.81;77.74;102564.81;109230;1257;59377;-60
2024/01/30 10:17:21;;;;;;;65.40;40.20;;;;;;;5.95;77.50;102557.79;108980;1254;138933;-65
2024/01/30 10:19:47;;;;;;;49.20;29.90;;;;;;;6.08;77.38;102558.71;109215;1254;74655;-59
2024/01/30 10:22:14;;;;;;;41.10;27.10;;;;;;;6.18;77.20;102556.83;109225;1254;66240;-65
2024/01/30 10:24:41;;;;;;;49.70;29.80;;;;;;;6.30;77.09;102557.55;108907;1255;138428;-66
2024/01/30 10:27:08;;;;;;;42.90;27.20;;;;;;;6.40;76.76;102555.65;108947;1257;59281;-66
2024/01/30 10:29:34;;;;;;;47.40;29.30;;;;;;;6.49;76.59;102556.23;109127;1254;138546;-65
2024/01/30 10:32:02;;;;;;;56.50;33.40;;;;;;;6.54;76.30;102552.61;109209;1254;76129;-66
2024/01/30 10:34:29;;;;;;;55.00;31.70;;;;;;;6.55;76.10;102552.64;109250;1255;66044;-66
2024/01/30 10:37:07;;;;;;;46.70;29.60;;;;;;;6.58;76.01;102551.86;109077;1254;137853;-66
2024/01/30 10:39:37;;;;;;;55.60;30.80;;;;;;;6.64;75.85;102552.42;109208;1254;59351;-66
2024/01/30 10:42:05;;;;;;;52.10;32.50;;;;;;;6.68;75.84;102549.53;108747;1256;137898;-66
2024/01/30 10:45:03;;;;;;;49.80;29.00;;;;;;;6.69;75.46;102546.83;109007;1256;74968;-66
2024/01/30 10:47:30;;;;;;;48.00;30.40;;;;;;;6.67;75.31;102547.77;108923;1259;138201;-66
2024/01/30 10:49:57;;;;;;;42.40;27.70;;;;;;;6.69;75.20;102546.61;109045;1257;72976;-66
2024/01/30 10:52:28;;;;;;;43.50;26.20;;;;;;;6.73;75.29;102542.38;109001;1257;59237;-66
2024/01/30 10:54:55;;;;;;;45.60;28.00;;;;;;;6.77;75.18;102542.00;108772;1255;138189;-66
2024/01/30 10:57:23;;;;;;;46.10;28.80;;;;;;;6.83;75.10;102541.52;109040;1259;74768;-66
2024/01/30 10:59:49;;;;;;;48.30;29.50;;;;;;;6.83;74.73;102535.95;108828;1256;138873;-66
2024/01/30 11:02:16;;;;;;;45.30;28.50;;;;;;;6.85;74.73;102538.83;108909;1256;71431;-66
2024/01/30 11:04:44;;;;;;;43.80;28.90;;;;;;;6.89;74.47;102538.05;109037;1257;58997;-65